Oxford, AL

7:07 AM CDT on April 23, 2017 (GMT -0500)
South Circle | | Change Station

Elev 719 ft 33.57 °N, 85.83 °W | Updated 18 seconds ago

Rain
Rain Mist
62.2 °F
Feels Like 62.2 °F
N
0.0
Wind Variable Wind from NE

Today
High -- | Low -- °F
--% Chance of Precip.
Yesterday
High -- | Low -- °F
Precip. -- in
Pressure 29.79 in
Visibility 1.5 miles
Clouds Scattered Clouds 1300 ft
Scattered Clouds 5500 ft
Overcast 7500 ft
Dew Point 60 °F
Humidity 93%
Rainfall 0.30 in
Snow Depth Not available.
6:03 AM 7:20 PM
Waning Crescent, 12% visible
METAR KANB 231153Z AUTO 00000KT 1 1/2SM RA BR SCT013 SCT055 OVC075 17/17 A2980 RMK AO2 RAB17 SLP086 P0010 60023 70026 T01720172 10194 20172 51004
Pressure 29.79 in
Visibility 1.5 miles
Clouds Scattered Clouds 1300 ft
Scattered Clouds 5500 ft
Overcast 7500 ft
Dew Point 60 °F
Humidity 93%
Rainfall 0.30 in
Snow Depth Not available.
6:03 AM 7:20 PM
Waning Crescent, 12% visible
METAR KANB 231153Z AUTO 00000KT 1 1/2SM RA BR SCT013 SCT055 OVC075 17/17 A2980 RMK AO2 RAB17 SLP086 P0010 60023 70026 T01720172 10194 20172 51004

Get Severe Weather Alerts

Thanks for signing up!

Be on the lookout for a verification email in your inbox.

You'll start receiving the daily forecast at 8 AM.

×

10-Day Weather Forecast

Almanac

Astronomy

Apr. 23, 2017 Rise Set
Actual Time
Civil Twilight
Nautical Twilight
Astronomical Twilight
Moon
Length of Visible Light
Length of Day
Tomorrow will be .
, % of the Moon is Illuminated

Today's Extremes

State Highs State Lows

Community

WunderPhotos

WunderBlog® & News

Nearby

Air Quality

  Air Quality AQ Index Pollutant
Not available.

Snow Depth

Station Depth Elevation

Earthquake Activity

City Distance Mag. Time & Date
Minimum magnitude displayed is 2.5.

Coastal Water Temperatures

Place Temperature

Stations

Nearby Weather Stations

Station Location Temp. Windchill Dew Point Humidity Wind Precip. Elev Updated Type
                   

Watches & Warnings

There are currently no watches in effect.